createdAt,value
2018-03-09T00:01:29.140Z,33.40
2018-03-09T00:03:57.368Z,33.30
2018-03-09T00:06:25.554Z,33.40
2018-03-09T00:08:53.719Z,33.50
2018-03-09T00:11:22.655Z,33.40
2018-03-09T00:13:50.824Z,33.40
2018-03-09T00:16:19.047Z,33.40
2018-03-09T00:18:47.280Z,33.40
2018-03-09T00:21:15.578Z,33.40
2018-03-09T00:23:43.967Z,33.40
2018-03-09T00:26:12.219Z,33.30
2018-03-09T00:28:40.392Z,33.40
2018-03-09T00:31:08.562Z,33.40
2018-03-09T00:33:36.843Z,33.50
2018-03-09T00:36:05.013Z,33.50
2018-03-09T00:38:33.430Z,33.50
2018-03-09T00:41:01.739Z,33.50
2018-03-09T00:43:30.721Z,33.60
2018-03-09T00:45:59.769Z,33.70
2018-03-09T00:48:28.356Z,33.60
2018-03-09T00:51:14.540Z,33.60
2018-03-09T00:53:42.776Z,33.60
2018-03-09T00:56:11.806Z,33.80
2018-03-09T00:58:40.079Z,33.80
2018-03-09T01:01:08.330Z,33.80
2018-03-09T01:03:36.666Z,34.30
2018-03-09T01:06:04.903Z,33.70
2018-03-09T01:08:33.121Z,33.90
2018-03-09T01:11:01.328Z,33.90
2018-03-09T01:13:29.534Z,33.90
2018-03-09T01:15:57.776Z,33.90
2018-03-09T01:18:25.968Z,34.00
2018-03-09T01:20:54.115Z,34.10
2018-03-09T01:23:22.373Z,34.00
2018-03-09T01:25:51.346Z,34.10
2018-03-09T01:28:19.552Z,34.20
2018-03-09T01:30:48.623Z,34.10
2018-03-09T01:33:16.855Z,34.00
2018-03-09T01:35:45.110Z,34.10
2018-03-09T01:38:13.367Z,34.10
2018-03-09T01:40:41.657Z,34.20
2018-03-09T01:43:09.961Z,34.20
2018-03-09T01:45:38.215Z,34.20
2018-03-09T01:48:06.944Z,34.30
2018-03-09T01:50:35.372Z,34.20
2018-03-09T01:53:04.359Z,34.10
2018-03-09T01:55:33.302Z,34.10
2018-03-09T01:58:01.476Z,34.00
2018-03-09T02:00:29.720Z,34.10
2018-03-09T02:02:57.959Z,34.20
2018-03-09T02:05:26.154Z,33.90
2018-03-09T02:07:54.355Z,34.00
2018-03-09T02:10:22.599Z,34.00
2018-03-09T02:12:51.619Z,33.90
2018-03-09T02:15:19.797Z,33.90
2018-03-09T02:17:48.141Z,33.80
2018-03-09T02:20:16.373Z,33.80
2018-03-09T02:22:44.625Z,33.80
2018-03-09T02:25:12.819Z,33.80
2018-03-09T02:27:41.118Z,33.80
2018-03-09T02:30:10.068Z,33.70
2018-03-09T02:32:38.268Z,33.70
2018-03-09T02:35:06.526Z,33.70
2018-03-09T02:37:34.711Z,33.60
2018-03-09T02:40:02.897Z,33.60
2018-03-09T02:42:31.181Z,33.60
2018-03-09T02:45:00.143Z,33.60
2018-03-09T02:47:28.374Z,33.60
2018-03-09T02:49:56.621Z,33.50
2018-03-09T02:52:25.684Z,33.50
2018-03-09T02:54:53.913Z,33.50
2018-03-09T02:57:22.165Z,33.50
2018-03-09T02:59:50.475Z,33.50
2018-03-09T03:02:18.714Z,33.50
2018-03-09T03:04:47.683Z,33.40
2018-03-09T03:07:15.882Z,33.40
2018-03-09T03:09:44.848Z,33.50
2018-03-09T03:12:13.078Z,33.50
2018-03-09T03:14:41.258Z,33.40
2018-03-09T03:17:09.483Z,33.40
2018-03-09T03:19:38.454Z,33.40
2018-03-09T03:22:06.662Z,33.40
2018-03-09T03:24:35.707Z,33.40
2018-03-09T03:27:03.910Z,33.40
2018-03-09T03:29:32.070Z,33.40
2018-03-09T03:32:00.365Z,33.30
2018-03-09T03:34:28.533Z,33.40
2018-03-09T03:36:56.812Z,33.30
2018-03-09T03:39:25.766Z,33.40
2018-03-09T03:41:53.917Z,33.20
2018-03-09T03:44:22.097Z,33.40
2018-03-09T03:46:50.253Z,33.40
2018-03-09T03:49:18.426Z,33.30
2018-03-09T03:51:46.643Z,33.40
2018-03-09T03:54:14.858Z,33.30
2018-03-09T03:56:43.848Z,33.40
2018-03-09T03:59:12.111Z,33.40
2018-03-09T04:01:41.157Z,33.70
2018-03-09T04:04:09.791Z,33.20
2018-03-09T04:06:38.010Z,33.30
2018-03-09T04:09:06.154Z,33.30
2018-03-09T04:11:35.190Z,33.40
2018-03-09T04:14:03.404Z,33.40
2018-03-09T04:16:31.629Z,33.40
2018-03-09T04:18:59.815Z,33.40
2018-03-09T04:21:28.064Z,33.40
2018-03-09T04:23:56.250Z,33.30
2018-03-09T04:26:24.481Z,33.40
2018-03-09T04:28:53.439Z,33.30
2018-03-09T04:31:21.783Z,33.20
2018-03-09T04:33:50.032Z,33.90
2018-03-09T04:36:18.348Z,33.30
2018-03-09T04:38:46.646Z,33.40
2018-03-09T04:41:14.887Z,33.30
2018-03-09T04:43:43.120Z,33.30
2018-03-09T04:46:11.728Z,33.30
2018-03-09T04:48:39.984Z,34.00
2018-03-09T04:51:08.194Z,33.40
2018-03-09T04:53:36.371Z,33.30
2018-03-09T04:56:04.554Z,33.40
2018-03-09T04:58:32.770Z,33.40
2018-03-09T05:01:00.922Z,33.20
2018-03-09T05:03:29.216Z,33.40
2018-03-09T05:05:57.400Z,33.30
2018-03-09T05:08:25.650Z,33.30
2018-03-09T05:10:54.093Z,33.00
2018-03-09T05:13:22.339Z,32.90
2018-03-09T05:15:50.588Z,32.70
2018-03-09T05:18:18.756Z,32.60
2018-03-09T05:20:46.963Z,32.50
2018-03-09T05:23:15.233Z,32.40
2018-03-09T05:25:43.434Z,32.40
2018-03-09T05:28:13.730Z,32.30
2018-03-09T05:30:42.728Z,32.30
2018-03-09T05:33:11.766Z,32.20
2018-03-09T05:35:41.085Z,32.20
2018-03-09T05:38:09.350Z,32.10
2018-03-09T05:40:37.582Z,32.20
2018-03-09T05:43:05.796Z,32.10
2018-03-09T05:45:34.090Z,32.10
2018-03-09T05:48:02.315Z,32.20
2018-03-09T05:50:30.575Z,32.10
2018-03-09T05:52:58.841Z,32.00
2018-03-09T05:55:27.164Z,32.00
2018-03-09T05:57:55.400Z,32.10
2018-03-09T06:00:23.629Z,32.10
2018-03-09T06:02:51.839Z,32.10
2018-03-09T06:05:20.815Z,32.10
2018-03-09T06:07:49.078Z,32.00
2018-03-09T06:10:17.255Z,32.00
2018-03-09T06:12:45.483Z,32.00
2018-03-09T06:15:13.739Z,32.00
2018-03-09T06:17:41.930Z,32.00
2018-03-09T06:20:10.183Z,32.20
2018-03-09T06:22:39.114Z,32.20
2018-03-09T06:25:07.303Z,32.10
2018-03-09T06:27:35.626Z,32.20
2018-03-09T06:30:04.002Z,32.20
2018-03-09T06:32:32.229Z,32.10
2018-03-09T06:35:00.406Z,31.90
2018-03-09T06:37:37.687Z,31.90
2018-03-09T06:40:06.810Z,31.70
2018-03-09T06:42:35.783Z,31.70
2018-03-09T06:45:04.046Z,31.70
2018-03-09T06:47:32.208Z,31.70
2018-03-09T06:50:00.416Z,31.70
2018-03-09T06:52:28.635Z,31.70
2018-03-09T06:54:56.869Z,31.70
2018-03-09T06:57:25.888Z,31.70
2018-03-09T06:59:54.164Z,31.70
2018-03-09T07:02:22.332Z,31.70
2018-03-09T07:04:50.526Z,31.70
2018-03-09T07:07:18.697Z,31.70
2018-03-09T07:09:46.859Z,31.80
2018-03-09T07:12:15.088Z,31.80
2018-03-09T07:14:43.315Z,31.80
2018-03-09T07:17:11.644Z,31.80
2018-03-09T07:19:41.136Z,31.80
2018-03-09T07:22:10.211Z,31.80
2018-03-09T07:24:38.527Z,31.80
2018-03-09T07:27:07.469Z,31.80
2018-03-09T07:29:35.766Z,31.80
2018-03-09T07:32:03.962Z,31.90
2018-03-09T07:34:32.916Z,31.80
2018-03-09T07:37:01.149Z,31.80
2018-03-09T07:39:30.095Z,31.80
2018-03-09T07:41:58.308Z,31.80
2018-03-09T07:44:26.484Z,31.80
2018-03-09T07:46:55.420Z,31.80
2018-03-09T07:49:23.595Z,31.70
2018-03-09T07:51:52.283Z,31.70
2018-03-09T07:54:20.506Z,31.70
2018-03-09T07:56:48.735Z,31.60
2018-03-09T07:59:16.910Z,31.60
2018-03-09T08:01:45.252Z,31.60
2018-03-09T08:04:13.544Z,31.60
2018-03-09T08:06:41.735Z,31.70
2018-03-09T08:09:16.687Z,31.70
2018-03-09T08:11:44.929Z,31.70
2018-03-09T08:14:13.298Z,31.70
2018-03-09T08:16:41.448Z,31.70
2018-03-09T08:19:10.841Z,31.60
2018-03-09T08:21:39.054Z,31.60
2018-03-09T08:24:07.303Z,31.60
2018-03-09T08:26:35.653Z,32.10
2018-03-09T08:29:05.074Z,31.60
2018-03-09T08:31:34.680Z,31.60
2018-03-09T08:34:03.307Z,31.60
2018-03-09T08:36:31.466Z,31.60
2018-03-09T08:39:00.619Z,31.60
2018-03-09T08:41:32.467Z,31.60
2018-03-09T08:44:02.095Z,31.60
2018-03-09T08:46:32.255Z,31.60
2018-03-09T08:49:00.530Z,31.60
2018-03-09T08:51:28.713Z,31.60
2018-03-09T08:53:57.079Z,31.50
2018-03-09T08:56:25.352Z,31.60
2018-03-09T08:58:53.550Z,31.50
2018-03-09T09:01:21.735Z,31.60
2018-03-09T09:03:49.887Z,31.50
2018-03-09T09:06:18.074Z,31.60
2018-03-09T09:08:46.273Z,31.60
2018-03-09T09:11:14.522Z,31.50
2018-03-09T09:13:42.733Z,31.60
2018-03-09T09:16:11.017Z,31.60
2018-03-09T09:18:39.207Z,31.70
2018-03-09T09:21:07.407Z,31.70
2018-03-09T09:23:35.763Z,31.70
2018-03-09T09:26:04.038Z,31.60
2018-03-09T09:28:32.372Z,31.60
2018-03-09T09:31:00.730Z,31.60
2018-03-09T09:33:29.098Z,31.50
2018-03-09T09:35:57.352Z,31.40
2018-03-09T09:38:25.548Z,31.50
2018-03-09T09:40:53.764Z,31.60
2018-03-09T09:43:21.957Z,31.60
2018-03-09T09:45:50.327Z,31.60
2018-03-09T09:48:18.639Z,31.60
2018-03-09T09:50:46.919Z,31.60
2018-03-09T09:53:15.086Z,31.70
2018-03-09T09:55:43.340Z,31.70
2018-03-09T09:58:11.494Z,31.60
2018-03-09T10:00:39.658Z,31.50
2018-03-09T10:03:07.913Z,31.40
2018-03-09T10:05:36.189Z,31.50
2018-03-09T10:08:05.099Z,31.40
2018-03-09T10:10:33.295Z,31.50
2018-03-09T10:13:01.513Z,31.30
2018-03-09T10:15:29.747Z,31.40
2018-03-09T10:17:57.910Z,31.40
2018-03-09T10:20:26.192Z,31.40
2018-03-09T10:25:50.996Z,31.50
2018-03-09T10:28:19.200Z,31.50
2018-03-09T10:30:47.349Z,31.50
2018-03-09T10:33:15.547Z,31.40
2018-03-09T10:35:43.706Z,31.40
2018-03-09T10:38:11.955Z,31.40
2018-03-09T10:40:40.142Z,31.40
2018-03-09T10:43:08.336Z,31.50
2018-03-09T10:45:36.545Z,31.40
2018-03-09T10:48:04.709Z,31.40
2018-03-09T10:50:32.944Z,31.40
2018-03-09T10:53:01.123Z,31.40
2018-03-09T10:55:29.288Z,31.40
2018-03-09T10:57:58.387Z,31.40
2018-03-09T11:00:31.989Z,31.40
2018-03-09T11:03:00.183Z,31.40
2018-03-09T11:05:28.326Z,31.40
2018-03-09T11:07:56.627Z,31.30
2018-03-09T11:10:24.790Z,31.30
2018-03-09T11:12:52.951Z,31.30
2018-03-09T11:15:21.135Z,31.40
2018-03-09T11:17:49.299Z,31.40
2018-03-09T11:20:17.574Z,31.40
2018-03-09T11:22:45.737Z,31.30
2018-03-09T11:25:13.967Z,31.40
2018-03-09T11:27:42.918Z,32.00
2018-03-09T11:30:11.161Z,31.30
2018-03-09T11:32:39.310Z,31.20
2018-03-09T11:35:07.523Z,31.20
2018-03-09T11:37:35.731Z,31.40
2018-03-09T11:40:03.914Z,31.40
2018-03-09T11:42:32.372Z,31.30
2018-03-09T11:45:00.588Z,31.30
2018-03-09T11:47:28.823Z,31.30
2018-03-09T11:50:08.773Z,31.00
2018-03-09T11:52:37.055Z,30.90
2018-03-09T11:55:05.303Z,31.10
2018-03-09T11:57:33.536Z,31.20
2018-03-09T12:00:01.797Z,31.20
2018-03-09T12:02:30.792Z,31.40
2018-03-09T12:04:59.762Z,31.40
2018-03-09T12:07:27.992Z,31.40
2018-03-09T12:09:56.252Z,31.20
2018-03-09T12:12:24.627Z,31.20
2018-03-09T12:15:01.462Z,31.10
2018-03-09T12:20:36.729Z,30.90
2018-03-09T12:23:05.155Z,31.10
2018-03-09T12:25:33.331Z,31.20
2018-03-09T12:28:01.549Z,31.20
2018-03-09T12:30:30.250Z,31.20
2018-03-09T12:32:58.516Z,31.20
2018-03-09T12:35:26.975Z,31.30
2018-03-09T12:37:55.216Z,31.30
2018-03-09T12:40:23.480Z,31.30
2018-03-09T12:42:52.593Z,31.20
2018-03-09T12:45:20.914Z,31.30
2018-03-09T12:47:55.962Z,31.20
2018-03-09T12:50:24.302Z,31.20
2018-03-09T12:52:53.616Z,31.10
2018-03-09T12:55:28.051Z,30.60
2018-03-09T12:57:56.425Z,30.60
2018-03-09T13:00:24.610Z,30.50
2018-03-09T13:02:53.592Z,30.80
2018-03-09T13:05:23.566Z,30.50
2018-03-09T13:07:51.775Z,30.50
2018-03-09T13:10:20.107Z,30.40
2018-03-09T13:12:53.802Z,30.50
2018-03-09T13:15:24.686Z,30.30
2018-03-09T13:17:52.870Z,30.30
2018-03-09T13:20:21.934Z,30.40
2018-03-09T13:23:09.373Z,30.40
2018-03-09T13:25:38.877Z,30.40
2018-03-09T13:28:08.071Z,30.50
2018-03-09T13:30:36.726Z,30.50
2018-03-09T13:33:05.151Z,30.20
2018-03-09T13:35:33.512Z,30.30
2018-03-09T13:38:01.893Z,30.30
2018-03-09T13:40:30.141Z,30.40
2018-03-09T13:42:58.456Z,30.50
2018-03-09T13:48:31.800Z,30.60
2018-03-09T13:51:00.796Z,30.50
2018-03-09T13:53:30.363Z,30.50
2018-03-09T13:56:01.668Z,30.60
2018-03-09T14:01:45.488Z,30.50
2018-03-09T14:04:14.729Z,30.70
2018-03-09T14:06:43.347Z,30.70
2018-03-09T14:09:12.780Z,30.80
2018-03-09T14:11:42.096Z,30.80
2018-03-09T14:14:10.519Z,30.70
2018-03-09T14:16:38.963Z,30.70
2018-03-09T14:19:37.187Z,30.70
2018-03-09T14:22:07.149Z,30.70
2018-03-09T14:24:35.491Z,30.70
2018-03-09T14:27:04.560Z,30.50
2018-03-09T14:29:55.379Z,30.60
2018-03-09T14:32:23.621Z,30.60
2018-03-09T14:34:51.823Z,30.60
2018-03-09T14:37:20.095Z,30.50
2018-03-09T14:39:48.283Z,30.50
2018-03-09T14:42:16.518Z,30.50
2018-03-09T14:44:44.970Z,30.60
2018-03-09T14:47:13.212Z,30.60
2018-03-09T14:49:56.155Z,30.60
2018-03-09T14:52:25.287Z,30.70
2018-03-09T14:54:53.487Z,30.60
2018-03-09T14:57:21.724Z,30.60
2018-03-09T14:59:49.983Z,30.50
2018-03-09T15:02:18.165Z,30.50
2018-03-09T15:04:46.329Z,30.40
2018-03-09T15:07:16.323Z,30.40
2018-03-09T15:09:44.494Z,30.40
2018-03-09T15:12:13.822Z,30.40
2018-03-09T15:14:42.023Z,30.40
2018-03-09T15:17:10.235Z,30.50
2018-03-09T15:19:38.418Z,30.50
2018-03-09T15:22:07.447Z,30.50
2018-03-09T15:24:35.644Z,30.60
2018-03-09T15:27:03.990Z,30.50
2018-03-09T15:29:32.223Z,30.20
2018-03-09T15:32:01.142Z,30.20
2018-03-09T15:34:29.302Z,30.20
2018-03-09T15:36:58.422Z,30.20
2018-03-09T15:39:26.664Z,30.10
2018-03-09T15:41:55.827Z,30.20
2018-03-09T15:44:24.856Z,30.40
2018-03-09T15:46:53.113Z,30.40
2018-03-09T15:49:22.679Z,30.30
2018-03-09T15:51:50.881Z,30.10
2018-03-09T15:54:19.219Z,30.00
2018-03-09T15:56:48.585Z,30.10
2018-03-09T15:59:40.077Z,30.20
2018-03-09T16:02:15.373Z,30.20
2018-03-09T16:04:43.707Z,30.10
2018-03-09T16:07:15.579Z,30.20
2018-03-09T16:09:44.726Z,30.40
2018-03-09T16:12:12.966Z,30.40
2018-03-09T16:14:42.562Z,30.40
2018-03-09T16:17:10.824Z,30.30
2018-03-09T16:19:40.788Z,30.30
2018-03-09T16:22:09.078Z,30.20
2018-03-09T16:24:37.494Z,30.30
2018-03-09T16:27:05.716Z,30.30
2018-03-09T16:29:33.944Z,30.30
2018-03-09T16:32:02.130Z,30.20
2018-03-09T16:34:30.303Z,30.20
2018-03-09T16:36:59.343Z,30.20
2018-03-09T16:39:27.689Z,30.20
2018-03-09T16:41:56.145Z,30.20
2018-03-09T16:44:25.127Z,30.30
2018-03-09T16:47:23.023Z,30.20
2018-03-09T16:50:21.700Z,30.20
2018-03-09T16:52:50.949Z,30.30
2018-03-09T16:55:19.365Z,30.30
2018-03-09T16:57:57.303Z,30.40
2018-03-09T17:00:25.695Z,30.40
2018-03-09T17:02:53.868Z,30.40
2018-03-09T17:05:24.718Z,30.40
2018-03-09T17:07:52.991Z,30.40
2018-03-09T17:10:21.240Z,30.40
2018-03-09T17:12:49.454Z,30.50
2018-03-09T17:15:17.716Z,30.50
2018-03-09T17:17:45.952Z,30.60
2018-03-09T17:20:16.769Z,30.60
2018-03-09T17:22:45.351Z,30.70
2018-03-09T17:25:14.548Z,30.80
2018-03-09T17:27:43.548Z,31.10
2018-03-09T17:30:12.591Z,30.80
2018-03-09T17:32:41.015Z,30.80
2018-03-09T17:35:11.127Z,30.90
2018-03-09T17:37:40.352Z,30.90
2018-03-09T17:40:09.361Z,30.80
2018-03-09T17:42:37.565Z,30.80
2018-03-09T17:45:05.841Z,30.80
2018-03-09T17:47:34.332Z,30.80
2018-03-09T17:50:06.887Z,30.80
2018-03-09T17:52:35.453Z,30.80
2018-03-09T17:57:46.336Z,30.90
2018-03-09T18:00:15.506Z,30.90
2018-03-09T18:02:44.426Z,30.80
2018-03-09T18:05:12.657Z,30.80
2018-03-09T18:07:40.869Z,30.80
2018-03-09T18:10:22.088Z,30.80
2018-03-09T18:12:50.330Z,30.90
2018-03-09T18:15:18.508Z,30.80
2018-03-09T18:17:46.773Z,30.90
2018-03-09T18:20:15.864Z,30.90
2018-03-09T18:22:44.074Z,31.40
2018-03-09T18:25:12.276Z,30.90
2018-03-09T18:27:41.257Z,30.90
2018-03-09T18:30:09.717Z,30.80
2018-03-09T18:32:38.002Z,31.10
2018-03-09T18:35:06.239Z,30.90
2018-03-09T18:37:34.444Z,30.90
2018-03-09T18:40:02.890Z,30.90
2018-03-09T18:42:31.807Z,30.80
2018-03-09T18:44:59.994Z,30.80
2018-03-09T18:47:28.224Z,30.80
2018-03-09T18:49:58.377Z,30.80
2018-03-09T18:52:26.677Z,30.80
2018-03-09T18:54:54.922Z,30.70
2018-03-09T18:57:23.156Z,30.80
2018-03-09T18:59:51.349Z,30.80
2018-03-09T19:02:19.712Z,30.70
2018-03-09T19:04:48.046Z,30.70
2018-03-09T19:07:16.232Z,30.70
2018-03-09T19:09:44.485Z,30.70
2018-03-09T19:12:12.702Z,30.70
2018-03-09T19:14:42.578Z,30.70
2018-03-09T19:17:11.569Z,30.70
2018-03-09T19:19:39.774Z,30.70
2018-03-09T19:22:16.101Z,30.70
2018-03-09T19:24:45.174Z,30.70
2018-03-09T19:27:13.426Z,30.60
2018-03-09T19:29:41.797Z,30.60
2018-03-09T19:32:10.190Z,30.60
2018-03-09T19:34:38.517Z,30.60
2018-03-09T19:37:06.778Z,30.50
2018-03-09T19:39:35.033Z,30.50
2018-03-09T19:42:12.474Z,30.50
2018-03-09T19:44:40.771Z,30.50
2018-03-09T19:47:08.982Z,30.50
2018-03-09T19:49:37.216Z,30.60
2018-03-09T19:52:05.535Z,30.60
2018-03-09T19:54:33.807Z,30.60
2018-03-09T19:57:02.029Z,30.60
2018-03-09T19:59:31.025Z,30.70
2018-03-09T20:02:00.059Z,30.70
2018-03-09T20:04:28.314Z,30.70
2018-03-09T20:06:56.684Z,30.70
2018-03-09T20:09:27.068Z,30.70
2018-03-09T20:11:56.856Z,31.10
2018-03-09T20:14:25.205Z,30.70
2018-03-09T20:16:53.403Z,30.70
2018-03-09T20:19:21.622Z,30.70
2018-03-09T20:22:07.192Z,30.60
2018-03-09T20:24:36.010Z,30.60
2018-03-09T20:27:04.257Z,30.60
2018-03-09T20:29:33.324Z,30.60
2018-03-09T20:32:01.552Z,30.60
2018-03-09T20:34:29.901Z,30.60
2018-03-09T20:36:58.768Z,30.60
2018-03-09T20:39:27.039Z,30.60
2018-03-09T20:41:55.875Z,30.60
2018-03-09T20:44:24.831Z,30.60
2018-03-09T20:46:53.127Z,30.50
2018-03-09T20:49:21.309Z,30.60
2018-03-09T20:51:49.550Z,30.60
2018-03-09T20:54:17.787Z,30.50
2018-03-09T20:56:45.974Z,30.40
2018-03-09T20:59:14.349Z,30.40
2018-03-09T21:01:42.858Z,30.40
2018-03-09T21:04:11.313Z,30.40
2018-03-09T21:06:39.584Z,30.40
2018-03-09T21:09:09.128Z,30.40
2018-03-09T21:11:37.460Z,30.40
2018-03-09T21:14:07.259Z,30.40
2018-03-09T21:16:35.855Z,30.40
2018-03-09T21:19:05.475Z,30.40
2018-03-09T21:21:33.747Z,30.40
2018-03-09T21:24:02.032Z,30.40
2018-03-09T21:26:30.442Z,30.30
2018-03-09T21:28:58.679Z,30.30
2018-03-09T21:31:27.194Z,30.30
2018-03-09T21:33:55.583Z,30.30
2018-03-09T21:36:23.987Z,30.30
2018-03-09T21:38:52.270Z,30.30
2018-03-09T21:41:20.532Z,30.20
2018-03-09T21:43:50.663Z,30.30
2018-03-09T21:49:37.640Z,30.20
2018-03-09T21:52:05.930Z,30.20
2018-03-09T21:54:34.245Z,30.30
2018-03-09T21:57:02.590Z,30.20
2018-03-09T21:59:33.347Z,30.20
2018-03-09T22:02:01.609Z,30.20
2018-03-09T22:04:29.862Z,30.20
2018-03-09T22:06:58.111Z,30.20
2018-03-09T22:09:26.357Z,30.90
2018-03-09T22:11:54.535Z,30.30
2018-03-09T22:14:22.834Z,30.40
2018-03-09T22:16:51.130Z,30.40
2018-03-09T22:19:19.441Z,30.50
2018-03-09T22:21:47.830Z,30.60
2018-03-09T22:24:16.290Z,30.70
2018-03-09T22:26:44.528Z,30.80
2018-03-09T22:29:12.716Z,30.80
2018-03-09T22:31:49.706Z,31.20
2018-03-09T22:34:17.975Z,30.90
2018-03-09T22:36:47.052Z,30.90
2018-03-09T22:39:16.251Z,30.80
2018-03-09T22:41:50.019Z,30.90
2018-03-09T22:44:20.145Z,30.90
2018-03-09T22:46:52.938Z,30.90
2018-03-09T22:49:21.477Z,30.90
2018-03-09T22:51:49.733Z,30.90
2018-03-09T22:54:18.874Z,30.80
2018-03-09T22:56:47.112Z,30.80
2018-03-09T22:59:15.437Z,30.80
2018-03-09T23:01:43.808Z,30.80
2018-03-09T23:04:12.000Z,30.80
2018-03-09T23:06:40.245Z,30.80
2018-03-09T23:09:08.456Z,30.90
2018-03-09T23:11:38.594Z,30.90
2018-03-09T23:14:07.525Z,30.90
2018-03-09T23:16:37.630Z,30.90
2018-03-09T23:19:05.963Z,30.90
2018-03-09T23:21:34.111Z,30.90
2018-03-09T23:24:02.273Z,31.00
2018-03-09T23:26:30.457Z,31.00
2018-03-09T23:29:01.326Z,31.00
2018-03-09T23:31:30.305Z,31.20
2018-03-09T23:33:58.507Z,31.00
2018-03-09T23:36:26.872Z,31.00
2018-03-09T23:38:55.201Z,31.00
2018-03-09T23:41:24.389Z,31.00
2018-03-09T23:43:52.590Z,31.00
2018-03-09T23:46:20.791Z,31.00
2018-03-09T23:48:48.984Z,31.00
2018-03-09T23:51:17.435Z,31.00
2018-03-09T23:53:45.614Z,31.10
2018-03-09T23:56:14.808Z,31.10
2018-03-09T23:58:44.038Z,31.10
